Flight Track Log - Related Links

Times and Time Zones

All times are in EDT time to prevent confusion due to time zone crossing. See the SWA3213 flight status page for this flight to view local times or setup timezone preferences in your user account.


Time Position Orientation Groundspeed Altitude Reporting Facility
EDT Latitude Longitude Course Direction KTS MPH feet Rate Location/Type
Wed 09:51:40 AM 28.0000 -82.5333 North 155 178 1,000  Level Tampa TRACON
Wed 09:53:42 AM 28.1264 -82.5442 356° North 230 265 5,300 2,538 Climbing Jacksonville Center
Wed 09:54:42 AM 28.1975 -82.5842 334° Northwest 255 293 8,700 2,850 Climbing Jacksonville Center
Wed 09:55:42 AM 28.2706 -82.6311 330° Northwest 279 321 11,000 2,600 Climbing Jacksonville Center
Wed 09:56:42 AM 28.3583 -82.6778 335° Northwest 314 361 13,900 2,750 Climbing Jacksonville Center
Wed 09:57:00 AM 28.5565 -82.8000 North  Level FlightAware Approximate
Wed 09:57:42 AM 28.4525 -82.7061 345° North 332 382 16,500  Level Jacksonville Center
Wed 09:58:42 AM 28.5525 -82.7389 344° North 352 405 18,400 2,000 Climbing Jacksonville Center
Wed 09:59:42 AM 28.6550 -82.7694 345° North 359 413 20,500 2,050 Climbing Jacksonville Center
Wed 10:00:42 AM 28.7614 -82.7956 348° North 374 430 22,500 1,850 Climbing Jacksonville Center
Wed 10:01:42 AM 28.8700 -82.8286 345° North 392 451 24,200 1,650 Climbing Jacksonville Center
Wed 10:02:42 AM 28.9825 -82.8617 346° North 404 465 25,800 1,550 Climbing Jacksonville Center
Wed 10:03:42 AM 29.0975 -82.8972 345° North 414 476 27,300 1,500 Climbing Jacksonville Center
Wed 10:04:42 AM 29.2164 -82.9331 345° North 421 484 28,800 1,650 Climbing Jacksonville Center
Wed 10:05:42 AM 29.3311 -82.9689 345° North 421 484 30,600 1,550 Climbing Jacksonville Center
Wed 10:06:42 AM 29.4439 -83.0022 346° North 421 484 31,900 1,100 Climbing Jacksonville Center
Wed 10:07:42 AM 29.5525 -83.0383 344° North 427 491 32,800 1,200 Climbing Jacksonville Center
Wed 10:08:42 AM 29.6650 -83.0814 342° North 432 497 34,300 1,250 Climbing Jacksonville Center
Wed 10:09:42 AM 29.7736 -83.1319 338° Northwest 426 490 35,300 850 Climbing Jacksonville Center
Wed 10:10:42 AM 29.8819 -83.1825 338° Northwest 426 490 36,000 350 Climbing Jacksonville Center
Wed 10:11:42 AM 29.9967 -83.2381 337° Northwest 426 490 36,000  Level Jacksonville Center
Wed 10:12:42 AM 30.1094 -83.2864 340° North 436 502 36,000  Level Jacksonville Center
Wed 10:13:42 AM 30.2239 -83.3397 338° Northwest 436 502 36,000  Level Jacksonville Center
Wed 10:14:42 AM 30.3344 -83.3908 338° Northwest 430 495 36,000  Level Jacksonville Center
Wed 10:15:42 AM 30.4469 -83.4444 338° Northwest 430 495 36,000  Level Jacksonville Center
Wed 10:16:42 AM 30.5594 -83.4981 338° Northwest 430 495 36,000  Level Jacksonville Center
Wed 10:17:42 AM 30.6700 -83.5494 338° Northwest 430 495 36,000  Level Jacksonville Center
Wed 10:18:42 AM 30.7761 -83.6011 337° Northwest 425 489 36,000  Level Jacksonville Center
Wed 10:19:42 AM 30.8864 -83.6528 338° Northwest 425 489 36,000  Level Jacksonville Center
Wed 10:20:42 AM 30.9947 -83.7069 337° Northwest 425 489 36,000  Level Jacksonville Center
Wed 10:22:19 AM 31.1767 -83.7936 338° Northwest 427 491 36,000  Level Atlanta Center
Wed 10:23:19 AM 31.2831 -83.8444 338° Northwest 427 491 36,000  Level Atlanta Center
Wed 10:24:19 AM 31.3939 -83.9003 337° Northwest 422 486 36,000  Level Atlanta Center
Wed 10:25:19 AM 31.5025 -83.9536 337° Northwest 422 486 36,000  Level Atlanta Center
Wed 10:26:19 AM 31.6172 -83.9853 347° North 417 480 36,000  Level Atlanta Center
Wed 10:27:19 AM 31.7467 -84.0119 350° North 417 480 36,000  Level Atlanta Center
Wed 10:28:19 AM 31.8636 -84.0389 349° North 417 480 36,000  Level Atlanta Center
Wed 10:29:19 AM 31.9803 -84.0633 350° North 417 480 36,000  Level Atlanta Center
Wed 10:30:20 AM 32.0953 -84.0878 350° North 417 480 36,000  Level Atlanta Center
Wed 10:31:19 AM 32.2119 -84.1125 350° North 417 480 36,000  Level Atlanta Center
Wed 10:32:19 AM 32.3311 -84.1397 349° North 423 487 36,000  Level Atlanta Center
Wed 10:33:19 AM 32.4458 -84.1644 350° North 423 487 36,000  Level Atlanta Center
Wed 10:34:19 AM 32.5647 -84.1942 348° North 428 493 36,000  Level Atlanta Center
Wed 10:35:19 AM 32.6836 -84.2214 349° North 428 493 36,000  Level Atlanta Center
Wed 10:36:19 AM 32.8047 -84.2514 348° North 428 493 36,000  Level Atlanta Center
Wed 10:37:19 AM 32.9236 -84.2764 350° North 433 498 36,000  Level Atlanta Center
Wed 10:38:19 AM 33.0447 -84.3039 349° North 438 504 36,000  Level Atlanta Center
Wed 10:39:19 AM 33.1656 -84.3317 349° North 438 504 36,000  Level Atlanta Center
Wed 10:40:19 AM 33.2742 -84.3569 349° North 433 498 36,000  Level Atlanta Center
Wed 10:41:19 AM 33.3950 -84.3822 350° North 438 504 36,000  Level Atlanta Center
Wed 10:42:19 AM 33.5181 -84.4125 348° North 438 504 36,000  Level Atlanta Center
Wed 10:43:19 AM 33.6517 -84.4431 349° North 450 518 36,000  Level Atlanta Center
Wed 10:44:19 AM 33.7789 -84.4736 349° North 450 518 36,000  Level Atlanta Center
Wed 10:45:19 AM 33.9019 -84.5042 348° North 445 512 36,000  Level Atlanta Center
Wed 10:46:19 AM 34.0269 -84.5350 348° North 453 521 36,000  Level Atlanta Center
Wed 10:47:19 AM 34.1564 -84.5633 350° North 467 537 36,000  Level Atlanta Center
Wed 10:48:19 AM 34.2689 -84.5892 349° North 467 537 36,000  Level Atlanta Center
Wed 10:49:19 AM 34.3961 -84.6203 349° North 459 528 36,000  Level Atlanta Center
Wed 10:50:19 AM 34.5192 -84.6514 348° North 453 521 36,000  Level Atlanta Center
Wed 10:51:19 AM 34.6442 -84.6800 349° North 453 521 36,000  Level Atlanta Center
Wed 10:52:19 AM 34.7775 -84.7167 347° North 448 516 36,000 -300 Level Atlanta Center
Wed 10:53:19 AM 34.9025 -84.7478 348° North 448 516 35,400 -496 Descending Atlanta Center
Wed 10:54:20 AM 35.0233 -84.7769 349° North 448 516 35,000 -400 Descending Atlanta Center
Wed 10:55:19 AM 35.1400 -84.8033 350° North 436 502 34,600 -504 Descending Atlanta Center
Wed 10:56:19 AM 35.2608 -84.8297 350° North 431 496 34,000 -300 Descending Atlanta Center
Wed 10:57:19 AM 35.3861 -84.8361 358° North 431 496 34,000  Level Atlanta Center
Wed 10:58:19 AM 35.5092 -84.8425 358° North 431 496 34,000  Level Atlanta Center
Wed 10:59:19 AM 35.6281 -84.8461 359° North 431 496 34,000  Level Atlanta Center
Wed 11:00:19 AM 35.7469 -84.8525 358° North 431 496 34,000  Level Atlanta Center
Wed 11:02:10 AM 35.9594 -84.8628 358° North 434 499 34,000 -173 Level Indianapolis Center
Wed 11:03:12 AM 36.0778 -84.8694 357° North 428 493 33,500 -1,790 Descending Indianapolis Center
Wed 11:04:14 AM 36.2203 -84.8769 358° North 426 490 30,300 -1,694 Descending Indianapolis Center
Wed 11:05:16 AM 36.3414 -84.8831 358° North 433 498 30,000 -339 Descending Indianapolis Center
Wed 11:06:18 AM 36.4639 -84.8897 357° North 440 506 29,600 -677 Descending Indianapolis Center
Wed 11:07:20 AM 36.5872 -84.8969 357° North 442 509 28,600 -1,024 Descending Indianapolis Center
Wed 11:08:21 AM 36.7058 -84.9031 358° North 431 496 27,500 -1,024 Descending Indianapolis Center
Wed 11:09:23 AM 36.8208 -84.9094 357° North 415 478 26,500 -1,065 Descending Indianapolis Center
Wed 11:10:25 AM 36.9564 -84.9161 358° North 406 467 25,300 -1,113 Descending Indianapolis Center
Wed 11:11:27 AM 37.0572 -84.9211 358° North 406 467 24,200 -2,565 Descending Indianapolis Center
Wed 11:12:29 AM 37.1747 -84.9269 358° North 419 482 20,000 -3,122 Descending Indianapolis Center
Wed 11:13:30 AM 37.3094 -84.9350 357° North 410 472 17,800 -2,000 Descending Indianapolis Center
Wed 11:14:32 AM 37.4161 -84.9403 358° North 385 443 15,900 -1,935 Descending Indianapolis Center
Wed 11:15:34 AM 37.5167 -84.9453 358° North 364 419 13,800 -2,032 Descending Indianapolis Center
Wed 11:16:36 AM 37.6114 -84.9531 356° North 342 394 11,700 -1,232 Descending Indianapolis Center
Wed 11:18:39 AM 37.7456 -85.0794 323° Northwest 298 343 10,000 -551 Descending Indianapolis Center
Wed 11:19:41 AM 37.8003 -85.1597 311° West 302 348 10,000 -532 Level Indianapolis Center
Wed 11:20:43 AM 37.8358 -85.2706 292° West 289 333 8,900 -1,210 Descending Indianapolis Center
Wed 11:21:45 AM 37.8636 -85.3622 291° West 280 322 7,500 -1,317 Descending Indianapolis Center
Wed 11:22:46 AM 37.8933 -85.4514 293° West 275 316 6,200 -1,317 Descending Indianapolis Center
Wed 11:23:48 AM 37.9200 -85.5375 291° West 267 307 4,800 -1,210 Descending Indianapolis Center
Wed 11:24:50 AM 37.9486 -85.6247 293° West 268 308 3,700 -871 Descending Indianapolis Center
Wed 11:25:52 AM 37.9939 -85.6817 315° West 265 305 3,000 -435 Descending Indianapolis Center
Wed 11:26:54 AM 38.0453 -85.7019 343° North 220 253 2,800 -625 Descending Indianapolis Center
Wed 11:28:00 AM 38.1635 -85.7337 348° North  Level Estimated
Wed 11:29:04 AM 38.1333 -85.7333 348° North 137 158 1,000  Level Louisville TRACON
Wed 11:31:00 AM 38.1724 -85.7295 208° Southwest  Level FlightAware Approximate

Login

Don't have an account? Register now (free) for customized features, flight alerts, and more!